Air Resources Laboratory banner image
Air Resources Laboratory web site National Oceanic and Atmospheric Administration (NOAA)

wy metar


KBPI 141253Z AUTO 26003KT 1/4SM FZFG VV001 M12/M13 A3029 RMK AO2 SLP296
 T11171128=
KBYG 141253Z AUTO 34031G44KT 10SM FEW039 BKN050 01/M08 A3020 RMK AO2 PK WND
 33045/1236 SLP238 T00111083=
KCOD 141256Z AUTO 21005KT 10SM CLR M05/M07 A3030 RMK AO2 SLP307 T10501072
 FZRANO=
KCPR 141253Z 29006KT 10SM OVC060 M02/M05 A3022 RMK AO2 SLP258 T10221050=
KCYS 141253Z 29007KT 10SM BKN050 M02/M06 A3014 RMK AO2 SLP222 T10221056=
KDGW 141253Z AUTO 30015KT 10SM BKN048 OVC080 M01/M03 A3019 RMK AO2 SNB21E31
 SLP238 P0000 T10111033 $=
KEVW 141253Z AUTO 34007KT 10SM OVC023 M05/M06 A3032 RMK AO2 SLP291 T10501061=
KGCC 141253Z AUTO 32021G31KT 10SM BKN031 OVC050 00/M06 A3019 RMK AO2 PK WND
 33031/1253 SLP247 T00001061=
KGEY 141253Z AUTO 27010KT 10SM CLR M02/M06 A3028 RMK AO2 SLP287 T10221061 TSNO=
KJAC 141256Z AUTO 04003KT 10SM CLR M11/M13 RMK AO2 SLPNO T11061128 FZRANO $=
KLAR 141253Z AUTO 31008KT 10SM SCT021 OVC027 M06/M06 A3016 RMK AO2 SLP226
 T10561061=
KLND 141253Z AUTO 23005KT 10SM CLR M04/M08 A3027 RMK AO2 SLP283 T10441083=
KP60 141256Z AUTO 00000KT M17/M19 A3035 RMK AO1 SLP361 T11721194 $=
KRIW 141253Z AUTO 32012KT 10SM CLR M07/M09 A3028 RMK AO2 SLP295 T10721089=
KRKS 141254Z AUTO 26008KT 10SM BKN030 M07/M08 A3029 RMK AO2 SLP300 I1000
 T10721083=
KRWL 141253Z AUTO 00000KT 10SM CLR M09/M11 A3023 RMK AO2 SLP279 T10941111 PWINO
 FZRANO $=
KSHR 141253Z AUTO 32019G27KT 10SM SCT060 01/M06 A3027 RMK AO2 PK WND 33027/1247
 SLP277 T00111056=
KTOR 141253Z AUTO 31010KT 10SM OVC080 02/M04 A3014 RMK AO2 SLP218 T00171044=
KWRL 141253Z AUTO 00000KT 10SM CLR M06/M07 A3028 RMK AO2 SLP293 T10561072=